Terminal Aerodrome Forecast
Issued by NWS St Louis, MO

Home | Current Version | Previous Version | Text Only | Print | Product List | Glossary On
Versions: 1 2 3 4 5 6 7 8 9 10 11 12 13 14 15 16 17 18
000
FTUS43 KLSX 242300
TAFCOU
TAF
KCOU 242329Z 2500/2524 29014KT P6SM -SHRA SCT018 OVC080
      TEMPO 2500/2501 BKN018
     FM250100 31014G24KT P6SM OVC012
     FM250500 29011KT P6SM FEW150
     FM251600 25011KT P6SM SKC
     FM252100 22011KT P6SM SKC=

USA.gov is the U.S. government's official web portal to all federal, state and local government web resources and services.